sensor_id;sensor_type;location;lat;lon;timestamp;P1;durP1;ratioP1;P2;durP2;ratioP2
74309;SDS011;62722;51.142;17.052;2023-01-28T00:01:29;28.45;;;11.35;;
74309;SDS011;62722;51.142;17.052;2023-01-28T00:03:56;36.88;;;12.90;;
74309;SDS011;62722;51.142;17.052;2023-01-28T00:06:23;34.00;;;11.70;;
74309;SDS011;62722;51.142;17.052;2023-01-28T00:08:50;34.95;;;11.48;;
74309;SDS011;62722;51.142;17.052;2023-01-28T00:11:17;35.17;;;11.90;;
74309;SDS011;62722;51.142;17.052;2023-01-28T00:13:50;36.58;;;13.25;;
74309;SDS011;62722;51.142;17.052;2023-01-28T00:16:19;35.95;;;11.57;;
74309;SDS011;62722;51.142;17.052;2023-01-28T00:18:47;39.72;;;12.75;;
74309;SDS011;62722;51.142;17.052;2023-01-28T00:21:14;36.85;;;12.30;;
74309;SDS011;62722;51.142;17.052;2023-01-28T00:23:42;35.13;;;12.13;;
74309;SDS011;62722;51.142;17.052;2023-01-28T00:28:40;33.97;;;10.48;;
74309;SDS011;62722;51.142;17.052;2023-01-28T00:31:11;31.80;;;11.68;;
74309;SDS011;62722;51.142;17.052;2023-01-28T00:33:41;32.53;;;11.70;;
74309;SDS011;62722;51.142;17.052;2023-01-28T00:36:10;33.80;;;11.77;;
74309;SDS011;62722;51.142;17.052;2023-01-28T00:38:38;37.80;;;12.85;;
74309;SDS011;62722;51.142;17.052;2023-01-28T00:41:07;31.92;;;11.23;;
74309;SDS011;62722;51.142;17.052;2023-01-28T00:43:35;39.22;;;11.32;;
74309;SDS011;62722;51.142;17.052;2023-01-28T00:46:02;38.08;;;11.85;;
74309;SDS011;62722;51.142;17.052;2023-01-28T00:48:32;37.22;;;12.70;;
74309;SDS011;62722;51.142;17.052;2023-01-28T00:51:00;34.08;;;11.35;;
74309;SDS011;62722;51.142;17.052;2023-01-28T00:53:28;36.67;;;12.73;;
74309;SDS011;62722;51.142;17.052;2023-01-28T00:55:55;35.05;;;12.30;;
74309;SDS011;62722;51.142;17.052;2023-01-28T00:58:22;36.17;;;12.70;;
74309;SDS011;62722;51.142;17.052;2023-01-28T01:00:50;36.38;;;12.10;;
74309;SDS011;62722;51.142;17.052;2023-01-28T01:03:17;38.83;;;12.15;;
74309;SDS011;62722;51.142;17.052;2023-01-28T01:05:46;39.90;;;11.45;;
74309;SDS011;62722;51.142;17.052;2023-01-28T01:08:13;29.98;;;12.80;;
74309;SDS011;62722;51.142;17.052;2023-01-28T01:10:41;37.33;;;11.45;;
74309;SDS011;62722;51.142;17.052;2023-01-28T01:13:08;34.45;;;12.40;;
74309;SDS011;62722;51.142;17.052;2023-01-28T01:15:35;32.60;;;11.73;;
74309;SDS011;62722;51.142;17.052;2023-01-28T01:18:02;30.48;;;11.38;;
74309;SDS011;62722;51.142;17.052;2023-01-28T01:20:30;23.27;;;9.07;;
74309;SDS011;62722;51.142;17.052;2023-01-28T01:22:59;32.45;;;11.18;;
74309;SDS011;62722;51.142;17.052;2023-01-28T01:25:26;32.40;;;12.15;;
74309;SDS011;62722;51.142;17.052;2023-01-28T01:27:53;29.40;;;10.32;;
74309;SDS011;62722;51.142;17.052;2023-01-28T01:30:20;28.83;;;10.68;;
74309;SDS011;62722;51.142;17.052;2023-01-28T01:32:48;27.75;;;10.50;;
74309;SDS011;62722;51.142;17.052;2023-01-28T01:35:15;31.35;;;11.40;;
74309;SDS011;62722;51.142;17.052;2023-01-28T01:37:42;33.85;;;12.35;;
74309;SDS011;62722;51.142;17.052;2023-01-28T01:40:12;32.05;;;12.48;;
74309;SDS011;62722;51.142;17.052;2023-01-28T01:42:39;36.22;;;12.40;;
74309;SDS011;62722;51.142;17.052;2023-01-28T01:45:07;33.17;;;12.20;;
74309;SDS011;62722;51.142;17.052;2023-01-28T01:47:39;33.00;;;12.25;;
74309;SDS011;62722;51.142;17.052;2023-01-28T01:50:12;32.38;;;11.27;;
74309;SDS011;62722;51.142;17.052;2023-01-28T01:52:47;33.95;;;11.85;;
74309;SDS011;62722;51.142;17.052;2023-01-28T01:55:20;30.38;;;12.13;;
74309;SDS011;62722;51.142;17.052;2023-01-28T01:57:51;29.80;;;11.60;;
74309;SDS011;62722;51.142;17.052;2023-01-28T02:00:21;28.48;;;10.65;;
74309;SDS011;62722;51.142;17.052;2023-01-28T02:02:48;34.40;;;12.02;;
74309;SDS011;62722;51.142;17.052;2023-01-28T02:05:18;38.35;;;12.02;;
74309;SDS011;62722;51.142;17.052;2023-01-28T02:07:47;31.70;;;11.73;;
74309;SDS011;62722;51.142;17.052;2023-01-28T02:10:21;27.38;;;12.23;;
74309;SDS011;62722;51.142;17.052;2023-01-28T02:12:51;34.15;;;12.57;;
74309;SDS011;62722;51.142;17.052;2023-01-28T02:15:23;35.10;;;12.32;;
74309;SDS011;62722;51.142;17.052;2023-01-28T02:17:51;29.08;;;11.52;;
74309;SDS011;62722;51.142;17.052;2023-01-28T02:20:19;25.13;;;9.93;;
74309;SDS011;62722;51.142;17.052;2023-01-28T02:25:46;29.33;;;10.57;;
74309;SDS011;62722;51.142;17.052;2023-01-28T02:28:34;30.58;;;11.70;;
74309;SDS011;62722;51.142;17.052;2023-01-28T02:31:10;24.23;;;9.18;;
74309;SDS011;62722;51.142;17.052;2023-01-28T02:33:43;27.80;;;10.57;;
74309;SDS011;62722;51.142;17.052;2023-01-28T02:36:17;28.25;;;10.55;;
74309;SDS011;62722;51.142;17.052;2023-01-28T02:38:52;28.88;;;10.73;;
74309;SDS011;62722;51.142;17.052;2023-01-28T02:41:22;27.48;;;10.73;;
74309;SDS011;62722;51.142;17.052;2023-01-28T02:43:56;24.73;;;9.80;;
74309;SDS011;62722;51.142;17.052;2023-01-28T02:46:32;28.10;;;11.35;;
74309;SDS011;62722;51.142;17.052;2023-01-28T02:49:19;26.85;;;9.27;;
74309;SDS011;62722;51.142;17.052;2023-01-28T02:55:06;30.48;;;10.98;;
74309;SDS011;62722;51.142;17.052;2023-01-28T02:57:41;39.88;;;13.63;;
74309;SDS011;62722;51.142;17.052;2023-01-28T03:00:17;29.80;;;10.98;;
74309;SDS011;62722;51.142;17.052;2023-01-28T03:02:49;33.38;;;10.88;;
74309;SDS011;62722;51.142;17.052;2023-01-28T03:05:21;35.47;;;11.35;;
74309;SDS011;62722;51.142;17.052;2023-01-28T03:07:52;33.05;;;13.50;;
74309;SDS011;62722;51.142;17.052;2023-01-28T03:10:20;35.28;;;12.20;;
74309;SDS011;62722;51.142;17.052;2023-01-28T03:12:50;32.53;;;12.20;;
74309;SDS011;62722;51.142;17.052;2023-01-28T03:15:38;29.30;;;10.80;;
74309;SDS011;62722;51.142;17.052;2023-01-28T03:18:27;34.42;;;12.70;;
74309;SDS011;62722;51.142;17.052;2023-01-28T03:21:16;30.17;;;11.65;;
74309;SDS011;62722;51.142;17.052;2023-01-28T03:24:05;31.23;;;10.77;;
74309;SDS011;62722;51.142;17.052;2023-01-28T03:26:56;31.90;;;12.23;;
74309;SDS011;62722;51.142;17.052;2023-01-28T03:29:46;28.67;;;10.82;;
74309;SDS011;62722;51.142;17.052;2023-01-28T03:32:35;29.27;;;10.45;;
74309;SDS011;62722;51.142;17.052;2023-01-28T03:35:23;35.53;;;12.85;;
74309;SDS011;62722;51.142;17.052;2023-01-28T03:38:12;29.08;;;10.77;;
74309;SDS011;62722;51.142;17.052;2023-01-28T03:40:49;39.90;;;13.35;;
74309;SDS011;62722;51.142;17.052;2023-01-28T03:43:17;25.67;;;11.25;;
74309;SDS011;62722;51.142;17.052;2023-01-28T03:45:44;35.22;;;12.48;;
74309;SDS011;62722;51.142;17.052;2023-01-28T03:48:17;31.95;;;11.98;;
74309;SDS011;62722;51.142;17.052;2023-01-28T03:50:44;33.47;;;12.15;;
74309;SDS011;62722;51.142;17.052;2023-01-28T03:53:12;31.30;;;11.82;;
74309;SDS011;62722;51.142;17.052;2023-01-28T03:55:40;35.15;;;12.88;;
74309;SDS011;62722;51.142;17.052;2023-01-28T03:58:07;34.72;;;12.20;;
74309;SDS011;62722;51.142;17.052;2023-01-28T04:00:35;36.72;;;12.75;;
74309;SDS011;62722;51.142;17.052;2023-01-28T04:03:06;34.72;;;12.68;;
74309;SDS011;62722;51.142;17.052;2023-01-28T04:05:42;24.17;;;9.63;;
74309;SDS011;62722;51.142;17.052;2023-01-28T04:08:10;28.35;;;9.82;;
74309;SDS011;62722;51.142;17.052;2023-01-28T04:10:38;35.42;;;12.38;;
74309;SDS011;62722;51.142;17.052;2023-01-28T04:13:05;30.67;;;11.23;;
74309;SDS011;62722;51.142;17.052;2023-01-28T04:15:33;35.13;;;12.30;;
74309;SDS011;62722;51.142;17.052;2023-01-28T04:18:00;33.00;;;12.05;;
74309;SDS011;62722;51.142;17.052;2023-01-28T04:20:28;34.42;;;12.95;;
74309;SDS011;62722;51.142;17.052;2023-01-28T04:22:56;29.83;;;11.13;;
74309;SDS011;62722;51.142;17.052;2023-01-28T04:25:24;26.63;;;11.32;;
74309;SDS011;62722;51.142;17.052;2023-01-28T04:27:51;29.40;;;11.27;;
74309;SDS011;62722;51.142;17.052;2023-01-28T04:30:18;31.77;;;11.88;;
74309;SDS011;62722;51.142;17.052;2023-01-28T04:32:45;24.95;;;8.65;;
74309;SDS011;62722;51.142;17.052;2023-01-28T04:35:15;31.27;;;11.50;;
74309;SDS011;62722;51.142;17.052;2023-01-28T04:37:42;31.67;;;11.75;;
74309;SDS011;62722;51.142;17.052;2023-01-28T04:40:11;29.98;;;12.07;;
74309;SDS011;62722;51.142;17.052;2023-01-28T04:42:38;34.13;;;11.23;;
74309;SDS011;62722;51.142;17.052;2023-01-28T04:45:06;34.17;;;11.20;;
74309;SDS011;62722;51.142;17.052;2023-01-28T04:47:34;26.65;;;10.90;;
74309;SDS011;62722;51.142;17.052;2023-01-28T04:50:01;21.92;;;9.18;;
74309;SDS011;62722;51.142;17.052;2023-01-28T04:52:28;25.50;;;10.45;;
74309;SDS011;62722;51.142;17.052;2023-01-28T04:54:56;24.42;;;10.57;;
74309;SDS011;62722;51.142;17.052;2023-01-28T04:57:24;31.60;;;11.02;;
74309;SDS011;62722;51.142;17.052;2023-01-28T04:59:51;28.02;;;10.18;;
74309;SDS011;62722;51.142;17.052;2023-01-28T05:02:18;29.80;;;11.50;;
74309;SDS011;62722;51.142;17.052;2023-01-28T05:04:46;28.90;;;11.07;;
74309;SDS011;62722;51.142;17.052;2023-01-28T05:07:13;31.35;;;11.82;;
74309;SDS011;62722;51.142;17.052;2023-01-28T05:09:40;27.42;;;10.32;;
74309;SDS011;62722;51.142;17.052;2023-01-28T05:12:07;29.77;;;10.73;;
74309;SDS011;62722;51.142;17.052;2023-01-28T05:14:36;33.45;;;12.25;;
74309;SDS011;62722;51.142;17.052;2023-01-28T05:17:03;28.88;;;11.13;;
74309;SDS011;62722;51.142;17.052;2023-01-28T05:19:30;31.65;;;11.68;;
74309;SDS011;62722;51.142;17.052;2023-01-28T05:21:57;35.92;;;13.05;;
74309;SDS011;62722;51.142;17.052;2023-01-28T05:24:25;29.58;;;11.45;;
74309;SDS011;62722;51.142;17.052;2023-01-28T05:26:52;38.83;;;13.55;;
74309;SDS011;62722;51.142;17.052;2023-01-28T05:29:19;32.33;;;12.32;;
74309;SDS011;62722;51.142;17.052;2023-01-28T05:31:47;31.40;;;12.00;;
74309;SDS011;62722;51.142;17.052;2023-01-28T05:34:15;35.97;;;12.63;;
74309;SDS011;62722;51.142;17.052;2023-01-28T05:36:42;25.00;;;10.38;;
74309;SDS011;62722;51.142;17.052;2023-01-28T05:39:09;28.17;;;11.02;;
74309;SDS011;62722;51.142;17.052;2023-01-28T05:41:36;36.83;;;12.65;;
74309;SDS011;62722;51.142;17.052;2023-01-28T05:44:04;33.72;;;12.70;;
74309;SDS011;62722;51.142;17.052;2023-01-28T05:46:31;28.88;;;10.80;;
74309;SDS011;62722;51.142;17.052;2023-01-28T05:49:00;25.35;;;8.40;;
74309;SDS011;62722;51.142;17.052;2023-01-28T05:51:31;32.75;;;11.73;;
74309;SDS011;62722;51.142;17.052;2023-01-28T05:53:58;34.72;;;13.05;;
74309;SDS011;62722;51.142;17.052;2023-01-28T05:56:25;34.15;;;11.25;;
74309;SDS011;62722;51.142;17.052;2023-01-28T05:58:53;29.55;;;10.45;;
74309;SDS011;62722;51.142;17.052;2023-01-28T06:01:19;32.10;;;10.88;;
74309;SDS011;62722;51.142;17.052;2023-01-28T06:03:47;38.33;;;13.32;;
74309;SDS011;62722;51.142;17.052;2023-01-28T06:06:15;30.85;;;11.68;;
74309;SDS011;62722;51.142;17.052;2023-01-28T06:08:43;37.15;;;12.40;;
74309;SDS011;62722;51.142;17.052;2023-01-28T06:11:10;29.02;;;10.98;;
74309;SDS011;62722;51.142;17.052;2023-01-28T06:13:37;29.38;;;11.60;;
74309;SDS011;62722;51.142;17.052;2023-01-28T06:16:06;36.42;;;11.98;;
74309;SDS011;62722;51.142;17.052;2023-01-28T06:18:34;27.33;;;10.35;;
74309;SDS011;62722;51.142;17.052;2023-01-28T06:21:01;30.23;;;11.35;;
74309;SDS011;62722;51.142;17.052;2023-01-28T06:23:29;26.52;;;10.52;;
74309;SDS011;62722;51.142;17.052;2023-01-28T06:25:56;29.55;;;11.70;;
74309;SDS011;62722;51.142;17.052;2023-01-28T06:28:24;28.25;;;11.25;;
74309;SDS011;62722;51.142;17.052;2023-01-28T06:30:51;27.05;;;10.88;;
74309;SDS011;62722;51.142;17.052;2023-01-28T06:33:19;22.85;;;8.48;;
74309;SDS011;62722;51.142;17.052;2023-01-28T06:35:46;23.77;;;10.30;;
74309;SDS011;62722;51.142;17.052;2023-01-28T06:38:14;24.70;;;9.90;;
74309;SDS011;62722;51.142;17.052;2023-01-28T06:40:42;23.40;;;9.32;;
74309;SDS011;62722;51.142;17.052;2023-01-28T06:43:10;16.85;;;7.00;;
74309;SDS011;62722;51.142;17.052;2023-01-28T06:45:37;20.25;;;8.60;;
74309;SDS011;62722;51.142;17.052;2023-01-28T06:48:04;26.40;;;10.25;;
74309;SDS011;62722;51.142;17.052;2023-01-28T06:50:32;24.42;;;9.60;;
74309;SDS011;62722;51.142;17.052;2023-01-28T06:52:59;27.23;;;9.35;;
74309;SDS011;62722;51.142;17.052;2023-01-28T06:55:26;20.33;;;9.30;;
74309;SDS011;62722;51.142;17.052;2023-01-28T06:57:55;27.55;;;10.52;;
74309;SDS011;62722;51.142;17.052;2023-01-28T07:00:22;29.60;;;10.77;;
74309;SDS011;62722;51.142;17.052;2023-01-28T07:02:49;23.35;;;8.15;;
74309;SDS011;62722;51.142;17.052;2023-01-28T07:05:16;22.85;;;9.05;;
74309;SDS011;62722;51.142;17.052;2023-01-28T07:07:44;25.65;;;10.30;;
74309;SDS011;62722;51.142;17.052;2023-01-28T07:10:11;25.42;;;8.50;;
74309;SDS011;62722;51.142;17.052;2023-01-28T07:12:38;26.70;;;9.57;;
74309;SDS011;62722;51.142;17.052;2023-01-28T07:15:08;24.35;;;9.95;;
74309;SDS011;62722;51.142;17.052;2023-01-28T07:17:37;26.65;;;9.55;;
74309;SDS011;62722;51.142;17.052;2023-01-28T07:20:06;23.17;;;9.90;;
74309;SDS011;62722;51.142;17.052;2023-01-28T07:22:35;23.02;;;8.55;;
74309;SDS011;62722;51.142;17.052;2023-01-28T07:25:04;26.30;;;10.45;;
74309;SDS011;62722;51.142;17.052;2023-01-28T07:27:32;20.50;;;8.85;;
74309;SDS011;62722;51.142;17.052;2023-01-28T07:29:59;24.13;;;10.75;;
74309;SDS011;62722;51.142;17.052;2023-01-28T07:32:28;23.50;;;9.23;;
74309;SDS011;62722;51.142;17.052;2023-01-28T07:34:55;27.45;;;10.85;;
74309;SDS011;62722;51.142;17.052;2023-01-28T07:37:23;24.65;;;10.25;;
74309;SDS011;62722;51.142;17.052;2023-01-28T07:39:50;23.38;;;9.00;;
74309;SDS011;62722;51.142;17.052;2023-01-28T07:42:17;23.80;;;9.63;;
74309;SDS011;62722;51.142;17.052;2023-01-28T07:44:44;27.33;;;10.63;;
74309;SDS011;62722;51.142;17.052;2023-01-28T07:47:12;24.42;;;9.45;;
74309;SDS011;62722;51.142;17.052;2023-01-28T07:49:40;28.05;;;10.13;;
74309;SDS011;62722;51.142;17.052;2023-01-28T07:52:08;26.05;;;10.60;;
74309;SDS011;62722;51.142;17.052;2023-01-28T07:54:35;22.00;;;9.10;;
74309;SDS011;62722;51.142;17.052;2023-01-28T07:57:06;21.65;;;9.50;;
74309;SDS011;62722;51.142;17.052;2023-01-28T07:59:34;27.38;;;9.85;;
74309;SDS011;62722;51.142;17.052;2023-01-28T08:02:01;27.50;;;10.05;;
74309;SDS011;62722;51.142;17.052;2023-01-28T08:04:28;32.95;;;11.07;;
74309;SDS011;62722;51.142;17.052;2023-01-28T08:06:57;28.15;;;10.90;;
74309;SDS011;62722;51.142;17.052;2023-01-28T08:09:24;27.92;;;10.05;;
74309;SDS011;62722;51.142;17.052;2023-01-28T08:11:51;29.42;;;11.15;;
74309;SDS011;62722;51.142;17.052;2023-01-28T08:14:18;30.00;;;10.73;;
74309;SDS011;62722;51.142;17.052;2023-01-28T08:16:46;29.48;;;11.90;;
74309;SDS011;62722;51.142;17.052;2023-01-28T08:19:13;29.27;;;10.90;;
74309;SDS011;62722;51.142;17.052;2023-01-28T08:21:40;29.42;;;11.25;;
74309;SDS011;62722;51.142;17.052;2023-01-28T08:24:09;29.65;;;10.93;;
74309;SDS011;62722;51.142;17.052;2023-01-28T08:26:36;26.63;;;11.57;;
74309;SDS011;62722;51.142;17.052;2023-01-28T08:29:03;28.05;;;11.10;;
74309;SDS011;62722;51.142;17.052;2023-01-28T08:31:30;25.70;;;10.10;;
74309;SDS011;62722;51.142;17.052;2023-01-28T08:33:57;25.95;;;10.88;;
74309;SDS011;62722;51.142;17.052;2023-01-28T08:36:26;31.95;;;11.73;;
74309;SDS011;62722;51.142;17.052;2023-01-28T08:38:53;26.77;;;10.25;;
74309;SDS011;62722;51.142;17.052;2023-01-28T08:41:22;28.45;;;10.30;;
74309;SDS011;62722;51.142;17.052;2023-01-28T08:43:49;32.22;;;11.38;;
74309;SDS011;62722;51.142;17.052;2023-01-28T08:46:17;28.60;;;11.13;;
74309;SDS011;62722;51.142;17.052;2023-01-28T08:48:44;29.25;;;10.75;;
74309;SDS011;62722;51.142;17.052;2023-01-28T08:51:11;23.75;;;9.57;;
74309;SDS011;62722;51.142;17.052;2023-01-28T08:53:39;26.13;;;10.38;;
74309;SDS011;62722;51.142;17.052;2023-01-28T08:56:06;24.65;;;9.75;;
74309;SDS011;62722;51.142;17.052;2023-01-28T08:58:34;20.90;;;9.35;;
74309;SDS011;62722;51.142;17.052;2023-01-28T09:01:03;27.92;;;11.63;;
74309;SDS011;62722;51.142;17.052;2023-01-28T09:03:31;33.75;;;12.63;;
74309;SDS011;62722;51.142;17.052;2023-01-28T09:05:59;27.17;;;12.38;;
74309;SDS011;62722;51.142;17.052;2023-01-28T09:08:26;33.25;;;11.50;;
74309;SDS011;62722;51.142;17.052;2023-01-28T09:10:54;23.52;;;10.30;;
74309;SDS011;62722;51.142;17.052;2023-01-28T09:13:23;28.02;;;11.25;;
74309;SDS011;62722;51.142;17.052;2023-01-28T09:15:52;30.35;;;11.77;;
74309;SDS011;62722;51.142;17.052;2023-01-28T09:18:19;29.95;;;11.93;;
74309;SDS011;62722;51.142;17.052;2023-01-28T09:20:46;26.33;;;10.63;;
74309;SDS011;62722;51.142;17.052;2023-01-28T09:23:13;19.73;;;7.05;;
74309;SDS011;62722;51.142;17.052;2023-01-28T09:25:41;27.48;;;10.75;;
74309;SDS011;62722;51.142;17.052;2023-01-28T09:28:08;22.85;;;9.50;;
74309;SDS011;62722;51.142;17.052;2023-01-28T09:30:35;20.88;;;8.52;;
74309;SDS011;62722;51.142;17.052;2023-01-28T09:33:05;21.27;;;8.20;;
74309;SDS011;62722;51.142;17.052;2023-01-28T09:35:33;23.00;;;8.52;;
74309;SDS011;62722;51.142;17.052;2023-01-28T09:38:01;20.27;;;8.30;;
74309;SDS011;62722;51.142;17.052;2023-01-28T09:40:33;23.00;;;9.73;;
74309;SDS011;62722;51.142;17.052;2023-01-28T09:46:03;22.67;;;9.50;;
74309;SDS011;62722;51.142;17.052;2023-01-28T09:48:33;20.50;;;8.70;;
74309;SDS011;62722;51.142;17.052;2023-01-28T09:51:06;19.92;;;8.55;;
74309;SDS011;62722;51.142;17.052;2023-01-28T09:53:36;19.20;;;8.13;;
74309;SDS011;62722;51.142;17.052;2023-01-28T09:56:10;20.38;;;8.25;;
74309;SDS011;62722;51.142;17.052;2023-01-28T09:58:40;21.20;;;8.57;;
74309;SDS011;62722;51.142;17.052;2023-01-28T10:01:14;21.70;;;9.88;;
74309;SDS011;62722;51.142;17.052;2023-01-28T10:03:59;14.70;;;5.90;;
74309;SDS011;62722;51.142;17.052;2023-01-28T10:06:33;19.52;;;8.27;;
74309;SDS011;62722;51.142;17.052;2023-01-28T10:09:22;18.33;;;8.15;;
74309;SDS011;62722;51.142;17.052;2023-01-28T10:12:04;17.48;;;7.72;;
74309;SDS011;62722;51.142;17.052;2023-01-28T10:14:49;19.83;;;8.05;;
74309;SDS011;62722;51.142;17.052;2023-01-28T10:17:25;17.40;;;7.57;;
74309;SDS011;62722;51.142;17.052;2023-01-28T10:19:58;20.52;;;7.97;;
74309;SDS011;62722;51.142;17.052;2023-01-28T10:22:29;21.67;;;8.63;;
74309;SDS011;62722;51.142;17.052;2023-01-28T10:25:01;19.55;;;8.70;;
74309;SDS011;62722;51.142;17.052;2023-01-28T10:27:32;22.17;;;10.05;;
74309;SDS011;62722;51.142;17.052;2023-01-28T10:30:08;22.83;;;8.75;;
74309;SDS011;62722;51.142;17.052;2023-01-28T10:32:45;23.00;;;9.93;;
74309;SDS011;62722;51.142;17.052;2023-01-28T10:35:20;19.73;;;8.02;;
74309;SDS011;62722;51.142;17.052;2023-01-28T10:37:48;21.17;;;9.38;;
74309;SDS011;62722;51.142;17.052;2023-01-28T10:40:19;19.60;;;8.02;;
74309;SDS011;62722;51.142;17.052;2023-01-28T10:42:46;20.67;;;8.68;;
74309;SDS011;62722;51.142;17.052;2023-01-28T10:45:15;23.80;;;10.35;;
74309;SDS011;62722;51.142;17.052;2023-01-28T10:47:47;19.17;;;7.55;;
74309;SDS011;62722;51.142;17.052;2023-01-28T10:50:21;21.20;;;9.18;;
74309;SDS011;62722;51.142;17.052;2023-01-28T10:52:51;17.65;;;8.07;;
74309;SDS011;62722;51.142;17.052;2023-01-28T10:55:22;18.67;;;8.63;;
74309;SDS011;62722;51.142;17.052;2023-01-28T10:57:52;16.80;;;8.10;;
74309;SDS011;62722;51.142;17.052;2023-01-28T11:00:21;17.17;;;8.48;;
74309;SDS011;62722;51.142;17.052;2023-01-28T11:02:51;16.60;;;7.45;;
74309;SDS011;62722;51.142;17.052;2023-01-28T11:05:21;19.90;;;8.65;;
74309;SDS011;62722;51.142;17.052;2023-01-28T11:08:01;21.13;;;8.60;;
74309;SDS011;62722;51.142;17.052;2023-01-28T11:10:30;16.15;;;7.40;;
74309;SDS011;62722;51.142;17.052;2023-01-28T11:12:59;15.20;;;7.68;;
74309;SDS011;62722;51.142;17.052;2023-01-28T11:15:29;16.30;;;7.30;;
74309;SDS011;62722;51.142;17.052;2023-01-28T11:17:58;17.85;;;7.95;;
74309;SDS011;62722;51.142;17.052;2023-01-28T11:20:29;16.35;;;7.45;;
74309;SDS011;62722;51.142;17.052;2023-01-28T11:23:00;18.13;;;7.18;;
74309;SDS011;62722;51.142;17.052;2023-01-28T11:25:28;16.77;;;7.32;;
74309;SDS011;62722;51.142;17.052;2023-01-28T11:27:59;16.33;;;7.50;;
74309;SDS011;62722;51.142;17.052;2023-01-28T11:30:28;12.85;;;6.43;;
74309;SDS011;62722;51.142;17.052;2023-01-28T11:32:58;13.50;;;6.43;;
74309;SDS011;62722;51.142;17.052;2023-01-28T11:35:32;16.30;;;7.03;;
74309;SDS011;62722;51.142;17.052;2023-01-28T11:37:59;13.60;;;6.28;;
74309;SDS011;62722;51.142;17.052;2023-01-28T11:40:27;7.63;;;4.05;;
74309;SDS011;62722;51.142;17.052;2023-01-28T11:42:55;13.43;;;7.45;;
74309;SDS011;62722;51.142;17.052;2023-01-28T11:45:26;14.27;;;7.22;;
74309;SDS011;62722;51.142;17.052;2023-01-28T11:48:22;6.97;;;3.83;;
74309;SDS011;62722;51.142;17.052;2023-01-28T11:51:02;12.45;;;6.05;;
74309;SDS011;62722;51.142;17.052;2023-01-28T11:53:42;10.05;;;4.38;;
74309;SDS011;62722;51.142;17.052;2023-01-28T11:56:32;11.00;;;5.28;;
74309;SDS011;62722;51.142;17.052;2023-01-28T11:59:16;11.80;;;5.20;;
74309;SDS011;62722;51.142;17.052;2023-01-28T12:01:56;11.63;;;5.28;;
74309;SDS011;62722;51.142;17.052;2023-01-28T12:04:36;8.88;;;4.72;;
74309;SDS011;62722;51.142;17.052;2023-01-28T12:07:19;8.73;;;4.25;;
74309;SDS011;62722;51.142;17.052;2023-01-28T12:09:54;8.70;;;4.45;;
74309;SDS011;62722;51.142;17.052;2023-01-28T12:12:34;11.93;;;5.53;;
74309;SDS011;62722;51.142;17.052;2023-01-28T12:18:19;28.27;;;10.65;;
74309;SDS011;62722;51.142;17.052;2023-01-28T12:21:01;11.27;;;5.18;;
74309;SDS011;62722;51.142;17.052;2023-01-28T12:23:41;14.93;;;6.75;;
74309;SDS011;62722;51.142;17.052;2023-01-28T12:26:21;12.60;;;5.30;;
74309;SDS011;62722;51.142;17.052;2023-01-28T12:29:04;11.32;;;5.80;;
74309;SDS011;62722;51.142;17.052;2023-01-28T12:31:46;13.65;;;4.95;;
74309;SDS011;62722;51.142;17.052;2023-01-28T12:34:30;10.90;;;5.28;;
74309;SDS011;62722;51.142;17.052;2023-01-28T12:37:26;10.75;;;5.38;;
74309;SDS011;62722;51.142;17.052;2023-01-28T12:40:09;9.82;;;4.75;;
74309;SDS011;62722;51.142;17.052;2023-01-28T12:42:47;12.48;;;6.30;;
74309;SDS011;62722;51.142;17.052;2023-01-28T12:45:20;14.02;;;6.35;;
74309;SDS011;62722;51.142;17.052;2023-01-28T12:47:53;13.82;;;6.50;;
74309;SDS011;62722;51.142;17.052;2023-01-28T12:50:26;13.95;;;6.40;;
74309;SDS011;62722;51.142;17.052;2023-01-28T12:52:58;10.80;;;5.35;;
74309;SDS011;62722;51.142;17.052;2023-01-28T12:55:37;13.68;;;5.60;;
74309;SDS011;62722;51.142;17.052;2023-01-28T12:58:10;11.23;;;5.35;;
74309;SDS011;62722;51.142;17.052;2023-01-28T13:00:44;11.75;;;4.53;;
74309;SDS011;62722;51.142;17.052;2023-01-28T13:03:16;9.73;;;5.07;;
74309;SDS011;62722;51.142;17.052;2023-01-28T13:05:49;11.27;;;5.28;;
74309;SDS011;62722;51.142;17.052;2023-01-28T13:08:20;7.78;;;3.72;;
74309;SDS011;62722;51.142;17.052;2023-01-28T13:10:51;13.20;;;5.38;;
74309;SDS011;62722;51.142;17.052;2023-01-28T13:13:21;11.77;;;5.20;;
74309;SDS011;62722;51.142;17.052;2023-01-28T13:15:55;9.07;;;4.18;;
74309;SDS011;62722;51.142;17.052;2023-01-28T13:18:31;7.38;;;3.50;;
74309;SDS011;62722;51.142;17.052;2023-01-28T13:21:00;6.82;;;4.03;;
74309;SDS011;62722;51.142;17.052;2023-01-28T13:23:36;11.10;;;4.97;;
74309;SDS011;62722;51.142;17.052;2023-01-28T13:26:10;9.02;;;4.15;;
74309;SDS011;62722;51.142;17.052;2023-01-28T13:29:06;9.50;;;4.00;;
74309;SDS011;62722;51.142;17.052;2023-01-28T13:31:44;9.57;;;4.68;;
74309;SDS011;62722;51.142;17.052;2023-01-28T13:37:15;9.60;;;4.35;;
74309;SDS011;62722;51.142;17.052;2023-01-28T13:39:48;9.63;;;5.13;;
74309;SDS011;62722;51.142;17.052;2023-01-28T13:42:21;8.90;;;3.90;;
74309;SDS011;62722;51.142;17.052;2023-01-28T13:44:50;8.88;;;4.63;;
74309;SDS011;62722;51.142;17.052;2023-01-28T13:52:34;7.45;;;3.70;;
74309;SDS011;62722;51.142;17.052;2023-01-28T13:55:14;6.15;;;3.17;;
74309;SDS011;62722;51.142;17.052;2023-01-28T13:58:06;8.85;;;3.47;;
74309;SDS011;62722;51.142;17.052;2023-01-28T14:00:54;6.68;;;3.15;;
74309;SDS011;62722;51.142;17.052;2023-01-28T14:04:02;5.63;;;2.88;;
74309;SDS011;62722;51.142;17.052;2023-01-28T14:10:03;6.80;;;2.58;;
74309;SDS011;62722;51.142;17.052;2023-01-28T14:13:03;7.40;;;2.90;;
74309;SDS011;62722;51.142;17.052;2023-01-28T14:15:49;3.58;;;2.35;;
74309;SDS011;62722;51.142;17.052;2023-01-28T14:18:28;5.82;;;2.50;;
74309;SDS011;62722;51.142;17.052;2023-01-28T14:20:59;6.38;;;2.83;;
74309;SDS011;62722;51.142;17.052;2023-01-28T14:23:28;6.10;;;2.85;;
74309;SDS011;62722;51.142;17.052;2023-01-28T14:26:03;6.45;;;3.30;;
74309;SDS011;62722;51.142;17.052;2023-01-28T14:28:47;6.47;;;2.80;;
74309;SDS011;62722;51.142;17.052;2023-01-28T14:31:24;7.43;;;3.28;;
74309;SDS011;62722;51.142;17.052;2023-01-28T14:33:53;6.07;;;3.05;;
74309;SDS011;62722;51.142;17.052;2023-01-28T14:36:21;6.18;;;3.20;;
74309;SDS011;62722;51.142;17.052;2023-01-28T14:38:49;3.88;;;2.13;;
74309;SDS011;62722;51.142;17.052;2023-01-28T14:41:19;5.50;;;3.00;;
74309;SDS011;62722;51.142;17.052;2023-01-28T14:43:50;6.25;;;2.88;;
74309;SDS011;62722;51.142;17.052;2023-01-28T14:46:23;7.40;;;2.83;;
74309;SDS011;62722;51.142;17.052;2023-01-28T14:49:01;8.10;;;4.05;;
74309;SDS011;62722;51.142;17.052;2023-01-28T14:51:45;6.80;;;2.78;;
74309;SDS011;62722;51.142;17.052;2023-01-28T14:54:33;9.48;;;3.60;;
74309;SDS011;62722;51.142;17.052;2023-01-28T14:57:18;7.68;;;3.20;;
74309;SDS011;62722;51.142;17.052;2023-01-28T14:59:54;7.63;;;3.00;;
74309;SDS011;62722;51.142;17.052;2023-01-28T15:02:25;6.57;;;2.78;;
74309;SDS011;62722;51.142;17.052;2023-01-28T15:04:54;7.10;;;2.80;;
74309;SDS011;62722;51.142;17.052;2023-01-28T15:07:32;5.75;;;2.70;;